Time;durP1;ratioP1;P1;durP2;ratioP2;P2;SDS_P1;SDS_P2;PMS_P1;PMS_P2;Temp;Humidity;BMP_temperature;BMP_pressure;BME280_temperature;BME280_humidity;BME280_pressure;Samples;Min_cycle;Max_cycle;Signal;HPM_P1;HPM_P2
2021/08/30 00:00:32;;;;;;;9.15;2.53;;;16.10;99.90;;;;;;4974855;28;20062;-89
2021/08/30 00:03:02;;;;;;;10.38;3.15;;;16.10;99.90;;;;;;4965790;28;20079;-90
2021/08/30 00:05:31;;;;;;;9.48;3.35;;;16.50;99.90;;;;;;4952183;28;20059;-90
2021/08/30 00:08:03;;;;;;;9.43;4.68;;;16.00;99.90;;;;;;4952712;28;20035;-89
2021/08/30 00:10:31;;;;;;;9.63;2.45;;;16.00;99.90;;;;;;4932757;29;20054;-90
2021/08/30 00:12:59;;;;;;;8.40;2.20;;;15.90;99.90;;;;;;4959170;28;20051;-90
2021/08/30 00:15:28;;;;;;;17.92;6.60;;;16.00;99.90;;;;;;4949287;29;20051;-90
2021/08/30 00:18:06;;;;;;;9.35;2.35;;;16.10;99.90;;;;;;4946758;28;20050;-90
2021/08/30 00:20:36;;;;;;;10.20;3.38;;;16.00;99.90;;;;;;4952272;28;20050;-90
2021/08/30 00:23:04;;;;;;;15.50;4.33;;;15.90;99.90;;;;;;4967079;28;20054;-89
2021/08/30 00:25:33;;;;;;;10.93;2.63;;;15.90;99.90;;;;;;4946833;29;20055;-90
2021/08/30 00:28:01;;;;;;;6.95;2.60;;;15.90;99.90;;;;;;4963833;28;20058;-89
2021/08/30 00:30:28;;;;;;;9.43;2.92;;;15.90;99.90;;;;;;4947265;29;20048;-90
2021/08/30 00:32:57;;;;;;;9.27;4.40;;;15.90;99.90;;;;;;4965137;28;20065;-88
2021/08/30 00:35:26;;;;;;;9.18;2.72;;;15.90;99.90;;;;;;4954840;28;20070;-90
2021/08/30 00:37:56;;;;;;;5.22;2.47;;;15.90;99.90;;;;;;4955272;28;20070;-89
2021/08/30 00:40:24;;;;;;;8.48;2.97;;;15.90;99.90;;;;;;4952085;28;20031;-90
2021/08/30 00:42:52;;;;;;;11.50;2.97;;;15.90;99.90;;;;;;4955150;28;20057;-89
2021/08/30 00:45:20;;;;;;;11.18;2.55;;;15.90;99.90;;;;;;4922889;28;20047;-89
2021/08/30 00:47:49;;;;;;;9.73;4.30;;;15.90;99.90;;;;;;4938463;28;20077;-90
2021/08/30 00:50:19;;;;;;;13.60;3.17;;;15.90;99.90;;;;;;4939944;28;20058;-90
2021/08/30 00:52:48;;;;;;;9.20;2.75;;;15.90;99.90;;;;;;4970696;28;20055;-89
2021/08/30 00:55:17;;;;;;;14.63;2.58;;;15.90;99.90;;;;;;4952162;29;20066;-90
2021/08/30 00:57:47;;;;;;;5.35;2.28;;;15.90;99.90;;;;;;4966992;28;20039;-90
2021/08/30 01:00:16;;;;;;;13.77;3.70;;;15.90;99.90;;;;;;4970709;28;20054;-90
2021/08/30 01:03:01;;;;;;;15.40;3.03;;;15.90;99.90;;;;;;4961272;28;20047;-87
2021/08/30 01:05:30;;;;;;;8.80;2.60;;;15.90;99.90;;;;;;4954422;28;20077;-89
2021/08/30 01:08:20;;;;;;;10.15;3.13;;;15.90;99.90;;;;;;4971812;28;20051;-89
2021/08/30 01:11:14;;;;;;;6.85;2.85;;;15.90;99.90;;;;;;4935755;29;20047;-90
2021/08/30 01:13:55;;;;;;;9.55;3.70;;;15.90;99.90;;;;;;4987844;28;20058;-89
2021/08/30 01:16:27;;;;;;;12.23;2.85;;;15.90;99.90;;;;;;4956686;28;20057;-90
2021/08/30 01:19:00;;;;;;;9.50;2.83;;;15.90;99.90;;;;;;4951294;29;20051;-90
2021/08/30 01:21:36;;;;;;;10.75;2.85;;;15.90;99.90;;;;;;4953853;28;20051;-90
2021/08/30 01:24:13;;;;;;;12.32;2.53;;;15.90;99.90;;;;;;4937790;29;20051;-89
2021/08/30 01:26:48;;;;;;;3.55;2.00;;;15.90;99.90;;;;;;4981922;28;20058;-90
2021/08/30 01:29:42;;;;;;;5.25;2.22;;;15.90;99.90;;;;;;4949119;28;20050;-90
2021/08/30 01:32:29;;;;;;;10.45;2.85;;;15.90;99.90;;;;;;4949771;29;20074;-90
2021/08/30 01:35:00;;;;;;;15.35;3.25;;;15.80;99.90;;;;;;4939159;29;20051;-89
2021/08/30 01:37:31;;;;;;;10.27;2.15;;;15.80;99.90;;;;;;4967300;28;20054;-89
2021/08/30 01:40:03;;;;;;;13.52;3.20;;;15.80;99.90;;;;;;4954692;28;20046;-89
2021/08/30 01:42:34;;;;;;;3.63;2.47;;;15.90;99.90;;;;;;4987921;28;20051;-89
2021/08/30 01:45:05;;;;;;;7.18;2.50;;;15.80;99.90;;;;;;4936583;28;20062;-90
2021/08/30 01:47:34;;;;;;;11.05;3.22;;;15.80;99.90;;;;;;4967942;28;20055;-89
2021/08/30 01:50:10;;;;;;;6.90;2.80;;;15.80;99.90;;;;;;4988694;28;20047;-89
2021/08/30 01:52:39;;;;;;;6.73;2.80;;;15.70;99.90;;;;;;4953239;28;20234;-90
2021/08/30 01:55:28;;;;;;;13.77;3.80;;;15.70;99.90;;;;;;4955048;28;20046;-89
2021/08/30 02:03:23;;;;;;;12.60;3.40;;;15.70;99.90;;;;;;4986423;28;20506;-89
2021/08/30 02:05:54;;;;;;;11.60;2.50;;;17.00;99.90;;;;;;4946719;28;20053;-89
2021/08/30 02:08:24;;;;;;;8.77;2.63;;;15.70;99.90;;;;;;4969542;28;20051;-89
2021/08/30 02:10:56;;;;;;;7.20;3.05;;;15.70;99.90;;;;;;4969023;28;20119;-89
2021/08/30 02:13:29;;;;;;;6.50;2.70;;;15.30;99.90;;;;;;4951646;28;20058;-87
2021/08/30 02:15:59;;;;;;;9.07;2.90;;;15.60;99.90;;;;;;4949302;29;20055;-89
2021/08/30 02:18:28;;;;;;;;;;;15.60;99.90;;;;;;4968011;28;20077;-89
2021/08/30 02:21:15;;;;;;;6.65;2.55;;;15.60;99.90;;;;;;4969733;28;19933;-90
2021/08/30 02:24:08;;;;;;;6.55;2.60;;;15.60;99.90;;;;;;4984551;28;20050;-90
2021/08/30 02:27:00;;;;;;;9.77;2.83;;;15.60;99.90;;;;;;4951679;28;20051;-90
2021/08/30 02:29:45;;;;;;;8.80;3.20;;;15.50;99.90;;;;;;4928670;28;20054;-87
2021/08/30 02:32:17;;;;;;;12.10;4.00;;;15.60;99.90;;;;;;4968615;28;20043;-89
2021/08/30 02:34:54;;;;;;;9.45;2.63;;;15.50;99.90;;;;;;4970006;28;20053;-89
2021/08/30 02:37:25;;;;;;;14.57;3.30;;;15.50;99.90;;;;;;4935870;28;20062;-89
2021/08/30 02:39:54;;;;;;;;;;;15.50;99.90;;;;;;4985053;28;20041;-89
2021/08/30 02:42:31;;;;;;;10.70;3.20;;;15.50;99.90;;;;;;4967852;28;19922;-89
2021/08/30 02:45:04;;;;;;;6.03;3.40;;;15.50;99.90;;;;;;4947883;29;20043;-89
2021/08/30 02:47:33;;;;;;;;;;;15.40;99.90;;;;;;4935280;28;20055;-89
2021/08/30 02:50:04;;;;;;;13.77;4.18;;;15.40;99.90;;;;;;4942529;28;19922;-89
2021/08/30 02:52:33;;;;;;;9.60;3.03;;;15.40;99.90;;;;;;4948607;28;20051;-89
2021/08/30 02:55:04;;;;;;;;;;;15.30;99.90;;;;;;4970107;28;20065;-89
2021/08/30 02:57:34;;;;;;;13.73;3.55;;;15.30;99.90;;;;;;4937378;28;19921;-90
2021/08/30 03:00:06;;;;;;;12.45;4.38;;;15.30;99.90;;;;;;4975074;28;20046;-89
2021/08/30 03:02:36;;;;;;;11.00;3.30;;;15.30;99.90;;;;;;4947619;28;20046;-89
2021/08/30 03:05:05;;;;;;;8.93;3.20;;;15.30;99.90;;;;;;4982316;28;20051;-89
2021/08/30 03:07:35;;;;;;;5.60;2.63;;;15.30;99.90;;;;;;4949219;28;20070;-89
2021/08/30 03:10:05;;;;;;;10.95;3.88;;;15.30;99.90;;;;;;4948267;28;20046;-89
2021/08/30 03:12:39;;;;;;;7.10;2.85;;;15.30;99.90;;;;;;4980859;28;20050;-88
2021/08/30 03:15:11;;;;;;;10.02;3.45;;;15.30;99.90;;;;;;4948050;28;20046;-89
2021/08/30 03:17:43;;;;;;;11.25;3.50;;;15.30;99.90;;;;;;4983055;28;20074;-89
2021/08/30 03:20:17;;;;;;;12.45;3.75;;;15.30;99.90;;;;;;4965315;28;20034;-91
2021/08/30 03:22:46;;;;;;;10.40;3.67;;;15.30;99.90;;;;;;4929240;29;20051;-90
2021/08/30 03:25:19;;;;;;;13.52;3.28;;;15.30;99.90;;;;;;4946405;28;20045;-89
2021/08/30 03:27:48;;;;;;;13.35;3.60;;;15.30;99.90;;;;;;4929202;29;20062;-89
2021/08/30 03:30:18;;;;;;;8.23;2.95;;;15.20;99.90;;;;;;4962865;28;20049;-90
2021/08/30 03:32:49;;;;;;;12.02;3.40;;;15.20;99.90;;;;;;4944687;29;20055;-90
2021/08/30 03:35:22;;;;;;;5.97;3.28;;;15.20;99.90;;;;;;4948496;28;20042;-89
2021/08/30 03:37:50;;;;;;;9.23;3.05;;;15.20;99.90;;;;;;4945534;29;20047;-89
2021/08/30 03:40:31;;;;;;;8.57;3.60;;;15.20;99.90;;;;;;4949005;28;20057;-88
2021/08/30 03:43:02;;;;;;;13.98;3.20;;;15.20;99.90;;;;;;4966308;28;20039;-89
2021/08/30 03:45:31;;;;;;;5.10;3.00;;;15.20;99.90;;;;;;4934601;28;20054;-89
2021/08/30 03:47:59;;;;;;;7.10;3.42;;;15.20;99.90;;;;;;4939009;29;20066;-89
2021/08/30 03:50:30;;;;;;;11.55;4.25;;;15.10;99.90;;;;;;4966144;28;20047;-89
2021/08/30 03:53:00;;;;;;;12.98;3.17;;;15.20;99.90;;;;;;4929994;28;20051;-89
2021/08/30 03:55:29;;;;;;;11.88;3.00;;;15.20;99.90;;;;;;4948956;28;20058;-89
2021/08/30 03:57:59;;;;;;;11.77;3.83;;;15.20;99.90;;;;;;4947175;28;20042;-88
2021/08/30 04:00:27;;;;;;;13.82;3.65;;;15.20;99.90;;;;;;4963341;28;20046;-89
2021/08/30 04:02:59;;;;;;;7.88;3.55;;;15.20;99.90;;;;;;4963475;28;20759;-89
2021/08/30 04:05:29;;;;;;;8.35;3.60;;;15.10;99.90;;;;;;4970592;28;20047;-89
2021/08/30 04:08:01;;;;;;;9.48;4.43;;;15.10;99.90;;;;;;4932579;28;20848;-89
2021/08/30 04:10:30;;;;;;;15.65;4.65;;;15.10;99.90;;;;;;4982200;28;20058;-90
2021/08/30 04:12:59;;;;;;;18.73;4.15;;;14.40;99.90;;;;;;4944528;28;20059;-90
2021/08/30 04:15:30;;;;;;;13.70;3.55;;;15.10;99.90;;;;;;4964691;28;20051;-90
2021/08/30 04:17:59;;;;;;;12.27;3.72;;;15.00;99.90;;;;;;4982423;28;20054;-88
2021/08/30 04:20:27;;;;;;;13.35;5.85;;;15.00;99.90;;;;;;4937178;28;20062;-89
2021/08/30 04:22:55;;;;;;;11.35;4.05;;;15.00;99.90;;;;;;4927777;29;20513;-89
2021/08/30 04:25:23;;;;;;;12.25;3.88;;;15.00;99.90;;;;;;4962324;28;20039;-90
2021/08/30 04:27:50;;;;;;;15.35;3.88;;;15.00;99.90;;;;;;4926808;29;20070;-89
2021/08/30 04:30:19;;;;;;;12.15;4.25;;;15.00;99.90;;;;;;4948339;28;20061;-86
2021/08/30 04:32:47;;;;;;;13.38;4.43;;;14.90;99.90;;;;;;4933874;28;20051;-89
2021/08/30 04:35:16;;;;;;;10.32;5.30;;;14.90;99.90;;;;;;4981653;28;20051;-89
2021/08/30 04:37:43;;;;;;;13.30;4.95;;;14.90;99.90;;;;;;4938616;29;20603;-89
2021/08/30 04:40:12;;;;;;;11.45;4.38;;;14.90;99.90;;;;;;4974780;28;20047;-90
2021/08/30 04:42:40;;;;;;;15.30;4.63;;;14.90;99.90;;;;;;4959711;28;20410;-90
2021/08/30 04:45:10;;;;;;;12.88;4.80;;;14.90;99.90;;;;;;4946725;28;20062;-89
2021/08/30 04:47:38;;;;;;;13.77;4.13;;;14.90;99.90;;;;;;4941021;28;20430;-89
2021/08/30 04:50:06;;;;;;;14.18;4.15;;;14.90;99.90;;;;;;4938127;28;20417;-89
2021/08/30 04:52:36;;;;;;;11.10;4.18;;;14.90;99.90;;;;;;4952017;28;20051;-89
2021/08/30 04:55:05;;;;;;;8.07;3.57;;;14.90;99.90;;;;;;4969985;28;20051;-88
2021/08/30 04:57:33;;;;;;;10.93;5.20;;;14.90;99.90;;;;;;4953743;28;20050;-88
2021/08/30 05:00:01;;;;;;;13.80;3.35;;;15.00;99.90;;;;;;4920366;28;20066;-89
2021/08/30 05:02:28;;;;;;;8.98;4.63;;;15.00;99.90;;;;;;4947454;28;20080;-89
2021/08/30 05:04:58;;;;;;;20.38;5.07;;;15.00;99.90;;;;;;4933998;29;20055;-89
2021/08/30 05:07:26;;;;;;;25.52;6.70;;;15.00;99.90;;;;;;4955560;28;20055;-89
2021/08/30 05:09:54;;;;;;;10.73;4.50;;;15.00;99.90;;;;;;4924541;28;20062;-88
2021/08/30 05:12:26;;;;;;;17.58;5.18;;;15.00;99.90;;;;;;4958996;28;20058;-88
2021/08/30 05:14:54;;;;;;;10.93;4.03;;;15.00;99.90;;;;;;4941884;28;20061;-90
2021/08/30 05:17:23;;;;;;;16.80;3.95;;;15.00;99.90;;;;;;4937489;29;20054;-89
2021/08/30 05:19:52;;;;;;;10.65;4.28;;;15.00;99.90;;;;;;4936509;28;20055;-88
2021/08/30 05:22:19;;;;;;;15.52;4.78;;;15.00;99.90;;;;;;4958316;28;20046;-88
2021/08/30 05:24:47;;;;;;;14.63;5.40;;;15.00;99.90;;;;;;4958997;28;20058;-89
2021/08/30 05:27:15;;;;;;;10.02;4.13;;;15.00;99.90;;;;;;4934061;28;20047;-89
2021/08/30 05:29:43;;;;;;;15.90;4.32;;;15.00;99.90;;;;;;4937853;28;20074;-86
2021/08/30 05:32:11;;;;;;;16.30;4.47;;;15.10;99.90;;;;;;4941749;28;20047;-89
2021/08/30 05:34:39;;;;;;;10.05;4.78;;;15.00;99.90;;;;;;4939749;29;20058;-89
2021/08/30 05:37:08;;;;;;;13.82;5.45;;;15.10;99.90;;;;;;4922079;28;20049;-88
2021/08/30 05:39:36;;;;;;;18.77;4.57;;;15.10;99.90;;;;;;4948421;28;20402;-89
2021/08/30 05:42:04;;;;;;;17.50;5.22;;;15.10;99.90;;;;;;4942510;28;20050;-89
2021/08/30 05:44:32;;;;;;;6.22;3.25;;;15.10;99.90;;;;;;4922231;29;20047;-88
2021/08/30 05:47:00;;;;;;;12.07;4.15;;;15.10;99.90;;;;;;4956311;28;20410;-89
2021/08/30 05:49:29;;;;;;;13.65;4.43;;;15.10;99.90;;;;;;4956907;28;20411;-89
2021/08/30 05:51:58;;;;;;;15.02;4.93;;;15.10;99.90;;;;;;4949572;28;20051;-88
2021/08/30 05:54:31;;;;;;;10.73;4.05;;;15.10;99.90;;;;;;4962494;28;20387;-88
2021/08/30 05:56:59;;;;;;;11.45;6.28;;;15.10;99.90;;;;;;4963183;28;20043;-89
2021/08/30 05:59:28;;;;;;;7.75;3.58;;;15.20;99.90;;;;;;4982077;28;20053;-88
2021/08/30 06:01:56;;;;;;;12.02;4.60;;;15.10;99.90;;;;;;4957987;29;20043;-89
2021/08/30 06:04:24;;;;;;;9.77;4.18;;;15.10;99.90;;;;;;4975470;28;20054;-90
2021/08/30 06:06:52;;;;;;;14.85;4.25;;;15.20;99.90;;;;;;4930114;29;20066;-89
2021/08/30 06:09:19;;;;;;;17.83;4.20;;;15.20;99.90;;;;;;4944306;28;20066;-90
2021/08/30 06:11:50;;;;;;;14.35;6.55;;;15.20;99.90;;;;;;4963688;28;20051;-89
2021/08/30 06:14:18;;;;;;;;;;;15.20;99.90;;;;;;4962107;28;20055;-88
2021/08/30 06:16:46;;;;;;;17.00;3.90;;;15.20;99.90;;;;;;4931898;28;19926;-88
2021/08/30 06:19:14;;;;;;;12.18;4.70;;;15.20;99.90;;;;;;4964560;28;20043;-87
2021/08/30 06:21:42;;;;;;;18.30;5.13;;;15.30;99.90;;;;;;4982767;28;20047;-89
2021/08/30 06:24:10;;;;;;;12.40;4.05;;;15.30;99.90;;;;;;4932262;28;20063;-89
2021/08/30 06:26:37;;;;;;;8.18;3.83;;;15.30;99.90;;;;;;4931425;28;20051;-87
2021/08/30 06:29:07;;;;;;;10.10;4.10;;;15.30;99.90;;;;;;4950444;28;20043;-89
2021/08/30 06:31:35;;;;;;;20.08;5.30;;;15.30;99.90;;;;;;4948684;28;20058;-89
2021/08/30 06:34:03;;;;;;;12.32;3.78;;;15.40;99.90;;;;;;4955879;28;20042;-89
2021/08/30 06:36:31;;;;;;;9.68;4.25;;;15.40;99.90;;;;;;4965794;28;20054;-88
2021/08/30 06:39:02;;;;;;;28.05;5.65;;;15.50;99.90;;;;;;4947002;28;20050;-88
2021/08/30 06:41:30;;;;;;;15.93;4.07;;;15.50;99.90;;;;;;4945920;28;20051;-89
2021/08/30 06:43:58;;;;;;;10.27;3.72;;;15.50;99.90;;;;;;4937547;28;20047;-89
2021/08/30 06:46:28;;;;;;;11.63;3.70;;;15.50;99.90;;;;;;4962822;28;20049;-88
2021/08/30 06:48:55;;;;;;;11.75;5.35;;;15.50;99.90;;;;;;4966029;28;20061;-89
2021/08/30 06:51:24;;;;;;;9.55;4.80;;;15.50;99.90;;;;;;4951546;28;20051;-90
2021/08/30 06:54:01;;;;;;;12.02;3.55;;;15.50;99.90;;;;;;4953007;28;20066;-89
2021/08/30 06:56:29;;;;;;;11.32;4.03;;;15.60;99.90;;;;;;4942651;28;20054;-89
2021/08/30 06:58:58;;;;;;;16.92;4.50;;;15.60;99.90;;;;;;4966291;28;20046;-89
2021/08/30 07:01:26;;;;;;;11.27;4.80;;;15.60;99.90;;;;;;4965211;28;20047;-89
2021/08/30 07:03:54;;;;;;;13.38;4.22;;;15.60;99.90;;;;;;4973895;28;20050;-89
2021/08/30 07:06:22;;;;;;;15.85;3.85;;;15.60;99.90;;;;;;4951262;28;20055;-89
2021/08/30 07:08:52;;;;;;;11.68;3.85;;;15.70;99.90;;;;;;4952393;28;20065;-90
2021/08/30 07:11:30;;;;;;;9.65;3.95;;;15.70;99.90;;;;;;4969883;28;20046;-89
2021/08/30 07:13:58;;;;;;;10.27;3.60;;;15.70;99.90;;;;;;4966199;28;20069;-89
2021/08/30 07:16:27;;;;;;;9.32;3.25;;;15.70;99.90;;;;;;4948617;28;20050;-89
2021/08/30 07:18:56;;;;;;;17.88;4.68;;;15.70;99.90;;;;;;4966181;28;20055;-90
2021/08/30 07:21:30;;;;;;;9.63;4.63;;;15.80;99.90;;;;;;4926517;28;20062;-89
2021/08/30 07:23:58;;;;;;;9.95;3.60;;;15.80;99.90;;;;;;4948976;28;20154;-90
2021/08/30 07:26:26;;;;;;;12.00;3.38;;;15.90;99.90;;;;;;4964509;28;20042;-90
2021/08/30 07:28:55;;;;;;;10.80;3.00;;;15.90;99.90;;;;;;4965673;28;20047;-91
2021/08/30 07:31:28;;;;;;;18.77;4.63;;;15.90;99.90;;;;;;4947576;28;20058;-90
2021/08/30 07:33:56;;;;;;;14.18;3.20;;;16.00;99.90;;;;;;4964773;28;20045;-89
2021/08/30 07:36:24;;;;;;;8.07;3.70;;;16.00;99.90;;;;;;4924230;29;20620;-90
2021/08/30 07:38:56;;;;;;;8.07;4.07;;;16.10;99.90;;;;;;4944997;28;20135;-90
2021/08/30 07:41:24;;;;;;;10.90;3.33;;;16.10;99.90;;;;;;4941832;29;20058;-88
2021/08/30 07:43:52;;;;;;;6.90;3.38;;;16.20;99.90;;;;;;4959322;28;20065;-89
2021/08/30 07:46:20;;;;;;;11.48;3.80;;;16.20;99.90;;;;;;4983787;28;20057;-89
2021/08/30 07:48:48;;;;;;;11.63;3.75;;;16.30;99.90;;;;;;4965244;28;20035;-89
2021/08/30 07:51:18;;;;;;;10.73;3.80;;;16.40;99.90;;;;;;4956848;28;20070;-89
2021/08/30 07:53:46;;;;;;;13.80;3.72;;;16.40;99.90;;;;;;4942018;29;20626;-90
2021/08/30 07:56:14;;;;;;;11.10;4.85;;;16.50;99.90;;;;;;4961804;28;20043;-89
2021/08/30 07:58:42;;;;;;;7.75;3.05;;;16.50;99.90;;;;;;4963406;28;20039;-89
2021/08/30 08:01:11;;;;;;;10.63;2.95;;;16.50;99.90;;;;;;4961697;28;20062;-90
2021/08/30 08:03:42;;;;;;;11.20;3.08;;;16.60;99.90;;;;;;4947281;28;20054;-90
2021/08/30 08:06:12;;;;;;;10.68;2.90;;;16.60;99.90;;;;;;4947206;28;20579;-89
2021/08/30 08:08:40;;;;;;;11.93;4.45;;;16.70;99.90;;;;;;4944637;29;20043;-89
2021/08/30 08:11:20;;;;;;;8.77;3.22;;;16.70;99.90;;;;;;4962795;28;20051;-89
2021/08/30 08:13:57;;;;;;;8.98;3.05;;;16.80;99.90;;;;;;4959321;28;20051;-89
2021/08/30 08:16:26;;;;;;;16.88;3.97;;;16.80;99.90;;;;;;4964856;28;20059;-88
2021/08/30 08:19:00;;;;;;;6.82;2.80;;;16.90;99.90;;;;;;4927612;28;20065;-89
2021/08/30 08:21:36;;;;;;;5.70;3.17;;;16.90;99.90;;;;;;4966128;28;20047;-89
2021/08/30 08:24:06;;;;;;;6.93;2.55;;;17.00;99.90;;;;;;4959576;28;20050;-89
2021/08/30 08:26:36;;;;;;;8.13;2.63;;;17.00;99.90;;;;;;4957739;28;20043;-89
2021/08/30 08:29:27;;;;;;;10.48;3.38;;;17.00;99.90;;;;;;4934376;28;20066;-89
2021/08/30 08:31:57;;;;;;;5.32;3.00;;;17.00;99.90;;;;;;4947829;28;20055;-88
2021/08/30 08:34:26;;;;;;;6.68;3.15;;;17.10;99.90;;;;;;4969458;28;20308;-89
2021/08/30 08:37:04;;;;;;;13.63;3.22;;;17.20;99.90;;;;;;4986327;28;20448;-88
2021/08/30 08:39:36;;;;;;;7.25;2.25;;;17.30;99.90;;;;;;4956975;28;20062;-89
2021/08/30 08:42:07;;;;;;;6.70;2.78;;;17.30;99.90;;;;;;4971206;28;20035;-89
2021/08/30 08:44:41;;;;;;;8.55;3.05;;;17.40;99.90;;;;;;4953867;28;20054;-89
2021/08/30 08:47:09;;;;;;;9.95;2.05;;;17.40;99.90;;;;;;4965229;28;20498;-89
2021/08/30 08:49:39;;;;;;;8.05;2.58;;;17.40;99.90;;;;;;4943479;28;20038;-90
2021/08/30 08:52:12;;;;;;;6.95;3.22;;;17.50;99.90;;;;;;4938387;29;20055;-90
2021/08/30 08:54:56;;;;;;;8.10;2.00;;;17.60;99.90;;;;;;4947256;28;20055;-89
2021/08/30 08:57:35;;;;;;;7.57;1.90;;;17.60;99.90;;;;;;4973463;28;20047;-89
2021/08/30 09:00:13;;;;;;;3.50;1.90;;;17.70;99.90;;;;;;4958485;28;20046;-89
2021/08/30 09:02:50;;;;;;;4.72;2.75;;;17.70;99.90;;;;;;4961448;28;20267;-89
2021/08/30 09:05:24;;;;;;;6.32;1.98;;;17.80;99.90;;;;;;4989410;28;20057;-89
2021/08/30 09:08:04;;;;;;;5.40;2.10;;;17.90;99.90;;;;;;4942179;28;20054;-90
2021/08/30 09:10:44;;;;;;;8.93;1.48;;;18.60;99.90;;;;;;4983603;28;20047;-88
2021/08/30 09:13:28;;;;;;;5.38;1.80;;;17.90;99.90;;;;;;4955117;28;20046;-89
2021/08/30 09:16:21;;;;;;;9.50;2.33;;;17.90;99.90;;;;;;4954561;28;20061;-89
2021/08/30 09:19:06;;;;;;;3.65;1.40;;;17.90;99.90;;;;;;4972180;28;20054;-89
2021/08/30 09:21:50;;;;;;;4.13;1.85;;;17.90;99.90;;;;;;4964373;28;20051;-89
2021/08/30 09:24:37;;;;;;;5.32;2.25;;;17.90;99.90;;;;;;4939259;28;20051;-88
2021/08/30 09:27:11;;;;;;;6.80;2.10;;;18.90;99.90;;;;;;4966833;28;20046;-89
2021/08/30 09:29:45;;;;;;;5.20;2.10;;;17.60;99.90;;;;;;4967487;28;20057;-89
2021/08/30 09:32:17;;;;;;;3.78;1.70;;;17.80;99.90;;;;;;4954173;28;20047;-89
2021/08/30 09:35:05;;;;;;;8.43;1.90;;;17.70;99.90;;;;;;4974581;28;20054;-89
2021/08/30 09:37:38;;;;;;;7.80;3.25;;;17.70;99.90;;;;;;4950977;28;20058;-90
2021/08/30 09:40:21;;;;;;;7.07;1.80;;;17.60;99.90;;;;;;4953672;28;20071;-89
2021/08/30 09:42:55;;;;;;;6.55;2.15;;;17.60;99.90;;;;;;4956491;28;20054;-88
2021/08/30 09:45:44;;;;;;;3.43;1.70;;;17.60;99.90;;;;;;4971023;28;20074;-91
2021/08/30 09:48:30;;;;;;;5.82;2.28;;;17.50;99.90;;;;;;4979177;28;20049;-90
2021/08/30 09:51:28;;;;;;;4.85;1.60;;;17.50;99.90;;;;;;4943027;29;20043;-91
2021/08/30 09:54:18;;;;;;;8.13;2.72;;;17.50;99.90;;;;;;4969014;28;20058;-89
2021/08/30 09:56:55;;;;;;;11.38;3.90;;;17.70;99.90;;;;;;4961695;28;20054;-90
2021/08/30 09:59:47;;;;;;;4.68;2.17;;;17.60;99.90;;;;;;4948798;28;20049;-91
2021/08/30 10:02:44;;;;;;;4.97;2.08;;;17.60;99.90;;;;;;4954056;28;20483;-91
2021/08/30 10:05:21;;;;;;;6.63;2.20;;;17.80;99.90;;;;;;4941668;28;20047;-90
2021/08/30 10:07:53;;;;;;;6.57;2.55;;;17.80;99.90;;;;;;4947398;28;20047;-90
2021/08/30 10:10:23;;;;;;;6.75;2.25;;;17.70;99.90;;;;;;4935951;29;20053;-90
2021/08/30 10:13:01;;;;;;;6.45;2.10;;;17.80;99.90;;;;;;4988795;28;20054;-90
2021/08/30 10:15:38;;;;;;;6.38;2.03;;;17.80;99.90;;;;;;4960746;28;20058;-91
2021/08/30 10:18:52;;;;;;;7.78;1.95;;;17.80;99.90;;;;;;4984102;28;20042;-91
2021/08/30 10:21:22;;;;;;;9.63;2.17;;;17.80;99.90;;;;;;4944378;28;20537;-90
2021/08/30 10:24:22;;;;;;;5.18;2.63;;;17.80;99.90;;;;;;4973141;28;20059;-90
2021/08/30 10:27:03;;;;;;;9.02;2.13;;;17.80;99.90;;;;;;4984458;28;20049;-90
2021/08/30 10:30:06;;;;;;;5.40;2.10;;;17.90;99.90;;;;;;4955665;28;20051;-90
2021/08/30 10:33:10;;;;;;;5.70;2.00;;;18.00;99.90;;;;;;4970662;28;20061;-89
2021/08/30 10:35:59;;;;;;;3.97;2.47;;;18.00;99.90;;;;;;4954679;29;20061;-91
2021/08/30 10:38:32;;;;;;;6.97;1.92;;;18.10;99.90;;;;;;4949635;28;20055;-91
2021/08/30 10:45:56;;;;;;;7.35;2.92;;;18.30;99.90;;;;;;4972667;28;20043;-91
2021/08/30 10:48:53;;;;;;;6.45;2.15;;;18.10;99.90;;;;;;4973032;28;20051;-90
2021/08/30 10:52:23;;;;;;;5.55;3.15;;;18.10;99.90;;;;;;4973401;28;20059;-93
2021/08/30 10:55:43;;;;;;;6.35;2.58;;;18.00;99.90;;;;;;4940449;28;20063;-91
2021/08/30 10:58:34;;;;;;;3.72;1.98;;;17.90;99.90;;;;;;4958595;28;20043;-92
2021/08/30 11:01:34;;;;;;;6.25;2.15;;;18.00;99.90;;;;;;4944538;28;20053;-92
2021/08/30 11:04:27;;;;;;;7.07;2.50;;;17.90;99.90;;;;;;4956645;28;20049;-92
2021/08/30 11:07:51;;;;;;;13.68;3.22;;;17.90;99.90;;;;;;4968308;28;20050;-92
2021/08/30 11:10:37;;;;;;;10.30;3.47;;;18.30;99.90;;;;;;4946528;28;20059;-87
2021/08/30 11:13:29;;;;;;;5.82;2.58;;;18.10;99.90;;;;;;4943528;29;20039;-88
2021/08/30 11:15:59;;;;;;;10.23;2.78;;;18.20;99.90;;;;;;4990024;28;20051;-92
2021/08/30 11:19:00;;;;;;;9.15;2.53;;;18.30;99.90;;;;;;4990246;23;20065;-85
2021/08/30 11:21:54;;;;;;;5.65;2.15;;;18.20;99.90;;;;;;5001226;28;20045;-84
2021/08/30 11:24:42;;;;;;;5.65;2.67;;;18.10;99.90;;;;;;5002162;28;20062;-87
2021/08/30 11:27:17;;;;;;;15.20;3.20;;;18.10;99.90;;;;;;4977499;28;20042;-85
2021/08/30 11:29:53;;;;;;;5.32;2.53;;;18.20;99.90;;;;;;4976221;28;20054;-86
2021/08/30 11:32:23;;;;;;;10.60;3.20;;;18.10;99.90;;;;;;4987449;28;20057;-84
2021/08/30 11:34:52;;;;;;;5.25;3.53;;;18.10;99.90;;;;;;4961894;28;20065;-84
2021/08/30 11:37:29;;;;;;;13.65;3.03;;;18.10;99.90;;;;;;4975453;28;20053;-84
2021/08/30 11:40:02;;;;;;;7.55;2.97;;;17.40;99.90;;;;;;4996108;28;20060;-86
2021/08/30 11:42:33;;;;;;;7.15;3.72;;;18.00;99.90;;;;;;4987469;28;20043;-86
2021/08/30 11:45:07;;;;;;;10.35;3.83;;;18.10;99.90;;;;;;4988772;28;20059;-87
2021/08/30 11:47:38;;;;;;;7.00;2.60;;;18.10;99.90;;;;;;4989751;28;20039;-86
2021/08/30 11:50:11;;;;;;;5.72;2.72;;;18.20;99.90;;;;;;4991743;28;20058;-86
2021/08/30 11:52:40;;;;;;;5.53;2.58;;;18.30;99.90;;;;;;4992925;28;20043;-88
2021/08/30 11:55:20;;;;;;;9.98;3.25;;;18.30;99.90;;;;;;4990587;28;20047;-84
2021/08/30 11:57:59;;;;;;;5.93;2.63;;;18.40;99.90;;;;;;4990839;28;20042;-84
2021/08/30 12:00:31;;;;;;;8.30;2.25;;;18.40;99.90;;;;;;4990955;28;20043;-84
2021/08/30 12:03:12;;;;;;;5.40;3.40;;;18.30;99.90;;;;;;4970079;28;20051;-84
2021/08/30 12:05:44;;;;;;;8.98;2.63;;;18.30;99.90;;;;;;4997500;28;20061;-86
2021/08/30 12:08:15;;;;;;;5.13;2.80;;;18.30;99.90;;;;;;4996131;28;20049;-85
2021/08/30 12:11:12;;;;;;;6.65;2.65;;;18.30;99.90;;;;;;4982657;28;20060;-85
2021/08/30 12:13:57;;;;;;;8.50;2.92;;;18.40;99.90;;;;;;4973320;28;20058;-87
2021/08/30 12:16:26;;;;;;;9.57;2.55;;;18.20;99.90;;;;;;4974986;28;20043;-85
2021/08/30 12:18:59;;;;;;;11.00;3.47;;;18.20;99.90;;;;;;4980846;28;20059;-85
2021/08/30 12:21:37;;;;;;;11.10;2.85;;;18.20;99.90;;;;;;4970025;28;20044;-85
2021/08/30 12:24:08;;;;;;;7.35;2.85;;;18.00;99.90;;;;;;4981008;28;20058;-85
2021/08/30 12:26:40;;;;;;;6.88;2.55;;;18.20;99.90;;;;;;4978551;28;20048;-84
2021/08/30 12:29:20;;;;;;;10.35;3.13;;;18.10;99.90;;;;;;4979121;28;20058;-86
2021/08/30 12:31:54;;;;;;;4.50;2.78;;;18.20;99.90;;;;;;4976054;28;20047;-87
2021/08/30 12:34:25;;;;;;;8.70;2.55;;;18.10;99.90;;;;;;4974174;28;20079;-87
2021/08/30 12:36:53;;;;;;;;;;;18.40;99.90;;;;;;4975280;28;20045;-85
2021/08/30 12:39:24;;;;;;;8.68;3.10;;;18.00;99.90;;;;;;4990443;28;19926;-87
2021/08/30 12:41:52;;;;;;;5.57;3.13;;;18.00;99.90;;;;;;4963024;28;20047;-86
2021/08/30 12:44:25;;;;;;;6.68;3.25;;;18.10;99.90;;;;;;4965212;28;20054;-85
2021/08/30 12:47:20;;;;;;;;;;;18.20;99.90;;;;;;4969395;29;20043;-88
2021/08/30 12:49:51;;;;;;;8.55;3.00;;;18.20;99.90;;;;;;4993538;28;19922;-90
2021/08/30 12:52:21;;;;;;;9.70;2.92;;;18.10;99.90;;;;;;4975049;28;20055;-87
2021/08/30 12:54:51;;;;;;;;;;;17.00;99.90;;;;;;4978551;28;20050;-88
2021/08/30 12:57:26;;;;;;;5.57;2.35;;;18.30;99.90;;;;;;4986877;28;19926;-89
2021/08/30 12:59:58;;;;;;;8.43;2.42;;;18.30;99.90;;;;;;4978677;28;20053;-88
2021/08/30 13:02:33;;;;;;;8.63;2.80;;;18.30;99.90;;;;;;4981417;28;20031;-86
2021/08/30 13:05:05;;;;;;;5.50;2.38;;;18.30;99.90;;;;;;4959048;29;20051;-88
2021/08/30 13:07:38;;;;;;;;;;;18.30;99.90;;;;;;5004247;28;20046;-87
2021/08/30 13:10:13;;;;;;;8.23;3.08;;;18.20;99.90;;;;;;4967919;28;19926;-89
2021/08/30 13:12:44;;;;;;;8.43;2.72;;;18.40;99.90;;;;;;4965157;28;20055;-88
2021/08/30 13:15:18;;;;;;;7.97;3.30;;;18.40;99.90;;;;;;4983849;28;20039;-87
2021/08/30 13:17:53;;;;;;;6.15;2.90;;;18.40;99.90;;;;;;4975460;28;20048;-88
2021/08/30 13:20:26;;;;;;;6.32;3.00;;;18.50;99.90;;;;;;4976768;28;20061;-86
2021/08/30 13:23:00;;;;;;;8.18;2.70;;;18.50;99.90;;;;;;4978050;28;20134;-86
2021/08/30 13:25:36;;;;;;;6.13;2.53;;;18.50;99.90;;;;;;4975644;28;20104;-87
2021/08/30 13:28:06;;;;;;;7.50;2.97;;;18.50;99.90;;;;;;4950698;29;20055;-87
2021/08/30 13:30:37;;;;;;;8.77;3.30;;;18.40;99.90;;;;;;4958469;28;20047;-84